Time;durP1;ratioP1;P1;durP2;ratioP2;P2;SDS_P1;SDS_P2;PMS_P1;PMS_P2;Temp;Humidity;BMP_temperature;BMP_pressure;BME280_temperature;BME280_humidity;BME280_pressure;Samples;Min_cycle;Max_cycle;Signal;HPM_P1;HPM_P2
2023/06/19 00:02:22;;;;;;;6.00;5.60;;;23.30;57.90;;;;;;5041372;28;20277;-72
2023/06/19 00:04:48;;;;;;;6.40;5.90;;;23.20;57.80;;;;;;5032495;28;20594;-71
2023/06/19 00:07:13;;;;;;;5.85;5.35;;;23.20;57.90;;;;;;5009450;28;20250;-72
2023/06/19 00:09:39;;;;;;;6.40;5.90;;;23.20;57.80;;;;;;5030428;28;20239;-72
2023/06/19 00:12:05;;;;;;;6.38;5.88;;;23.30;57.90;;;;;;5032362;28;20658;-71
2023/06/19 00:14:31;;;;;;;6.13;5.65;;;23.30;58.00;;;;;;5048649;28;20708;-71
2023/06/19 00:17:00;;;;;;;6.07;5.57;;;23.30;58.00;;;;;;5048503;28;20210;-71
2023/06/19 00:19:26;;;;;;;6.28;5.78;;;23.30;58.00;;;;;;5033105;28;20253;-71
2023/06/19 00:21:56;;;;;;;6.20;5.72;;;23.30;58.00;;;;;;5015282;28;20183;-71
2023/06/19 00:24:23;;;;;;;6.75;6.18;;;23.20;57.90;;;;;;5032307;28;20199;-71
2023/06/19 00:26:49;;;;;;;6.38;5.88;;;23.20;58.00;;;;;;5029129;28;20192;-71
2023/06/19 00:29:15;;;;;;;6.40;5.80;;;23.20;58.00;;;;;;5028655;28;20240;-70
2023/06/19 00:31:40;;;;;;;6.50;6.00;;;23.20;57.90;;;;;;5006097;28;20578;-70
2023/06/19 00:34:07;;;;;;;6.53;6.03;;;23.20;58.00;;;;;;5031965;28;20261;-71
2023/06/19 00:36:40;;;;;;;6.50;6.00;;;23.20;58.00;;;;;;5012015;28;20196;-71
2023/06/19 00:39:08;;;;;;;6.20;5.70;;;23.20;58.00;;;;;;5017579;28;20238;-71
2023/06/19 00:41:35;;;;;;;6.25;5.65;;;23.20;58.00;;;;;;5039491;28;20702;-70
2023/06/19 00:44:01;;;;;;;6.53;6.03;;;23.20;58.00;;;;;;5031933;28;20195;-71
2023/06/19 00:46:27;;;;;;;6.53;6.03;;;23.20;58.10;;;;;;5007069;28;20191;-71
2023/06/19 00:48:54;;;;;;;6.10;5.60;;;23.20;58.10;;;;;;5015195;28;20244;-71
2023/06/19 00:51:19;;;;;;;6.40;5.90;;;23.20;58.10;;;;;;5028223;28;20286;-71
2023/06/19 00:53:45;;;;;;;5.80;5.40;;;23.20;58.10;;;;;;4995582;28;20278;-71
2023/06/19 00:56:11;;;;;;;5.88;5.47;;;23.20;58.70;;;;;;4995800;28;20199;-72
2023/06/19 00:58:38;;;;;;;6.07;5.57;;;23.20;58.10;;;;;;5012749;28;20218;-73
2023/06/19 01:01:05;;;;;;;5.70;5.30;;;23.30;58.20;;;;;;5015072;28;20210;-71
2023/06/19 01:03:30;;;;;;;5.97;5.57;;;23.20;58.10;;;;;;5031692;28;20214;-70
2023/06/19 01:05:59;;;;;;;6.38;5.88;;;23.20;58.10;;;;;;4995443;28;20204;-71
2023/06/19 01:08:57;;;;;;;5.80;5.30;;;23.20;58.20;;;;;;5008037;28;20200;-70
2023/06/19 01:11:33;;;;;;;5.50;5.10;;;23.20;58.10;;;;;;5027288;28;20193;-71
2023/06/19 01:14:06;;;;;;;6.03;5.47;;;23.20;58.20;;;;;;5004448;28;20246;-71
2023/06/19 01:16:33;;;;;;;6.22;5.72;;;23.20;58.20;;;;;;5028129;28;20191;-71
2023/06/19 01:19:03;;;;;;;6.30;5.80;;;23.20;58.20;;;;;;5010750;28;20215;-69
2023/06/19 01:21:29;;;;;;;6.20;5.70;;;23.20;58.20;;;;;;5018882;28;20191;-70
2023/06/19 01:23:55;;;;;;;5.88;5.43;;;23.20;58.20;;;;;;5023093;28;20245;-71
2023/06/19 01:26:27;;;;;;;6.22;5.72;;;23.20;58.20;;;;;;5023338;28;20199;-71
2023/06/19 01:28:54;;;;;;;6.10;5.63;;;23.20;58.30;;;;;;5014701;28;20187;-71
2023/06/19 01:31:28;;;;;;;5.93;5.43;;;23.20;58.20;;;;;;5007761;28;20215;-70
2023/06/19 01:33:56;;;;;;;6.03;5.55;;;23.20;58.20;;;;;;5030780;28;20246;-71
2023/06/19 01:36:24;;;;;;;5.72;5.32;;;23.20;58.30;;;;;;5032718;28;20238;-70
2023/06/19 01:38:53;;;;;;;5.47;5.07;;;23.10;58.20;;;;;;5014428;28;20198;-71
2023/06/19 01:41:22;;;;;;;5.63;5.22;;;23.20;58.30;;;;;;5039597;28;20249;-73
2023/06/19 01:43:49;;;;;;;5.82;5.43;;;23.20;58.30;;;;;;5011515;28;20222;-71
2023/06/19 01:46:15;;;;;;;5.85;5.40;;;23.20;58.30;;;;;;5005962;28;20199;-70
2023/06/19 01:48:40;;;;;;;5.95;5.45;;;23.10;58.20;;;;;;5010246;28;20195;-71
2023/06/19 01:51:06;;;;;;;5.95;5.45;;;23.20;58.30;;;;;;5014220;28;20242;-71
2023/06/19 01:53:32;;;;;;;5.75;5.25;;;23.10;58.20;;;;;;5022635;28;20223;-72
2023/06/19 01:55:59;;;;;;;5.88;5.47;;;23.10;58.20;;;;;;5002736;28;20241;-71
2023/06/19 01:58:25;;;;;;;5.97;5.47;;;23.10;58.20;;;;;;5026323;28;20229;-71
2023/06/19 02:00:51;;;;;;;5.97;5.55;;;23.10;58.20;;;;;;5039002;28;20211;-70
2023/06/19 02:03:16;;;;;;;6.25;5.78;;;23.10;58.30;;;;;;5033256;28;20196;-71
2023/06/19 02:05:42;;;;;;;5.97;5.50;;;23.10;58.30;;;;;;5019233;28;20210;-71
2023/06/19 02:08:09;;;;;;;5.72;5.32;;;23.20;58.40;;;;;;5008129;28;20206;-71
2023/06/19 02:10:36;;;;;;;6.00;5.47;;;23.10;58.40;;;;;;5038990;28;20204;-71
2023/06/19 02:13:02;;;;;;;5.82;5.40;;;23.10;58.30;;;;;;5022507;28;20724;-71
2023/06/19 02:15:28;;;;;;;6.25;5.75;;;23.10;58.40;;;;;;5006431;28;20604;-72
2023/06/19 02:17:56;;;;;;;5.50;5.10;;;23.10;58.30;;;;;;5011545;28;20198;-70
2023/06/19 02:20:24;;;;;;;5.57;5.13;;;23.10;58.40;;;;;;5025507;28;20219;-71
2023/06/19 02:22:51;;;;;;;5.90;5.40;;;23.10;58.40;;;;;;5022360;28;20191;-70
2023/06/19 02:25:17;;;;;;;5.97;5.47;;;23.10;58.40;;;;;;5031002;28;20178;-70
2023/06/19 02:27:43;;;;;;;5.32;4.93;;;23.10;58.50;;;;;;5021477;28;20282;-71
2023/06/19 02:30:10;;;;;;;6.10;5.50;;;23.10;58.50;;;;;;5023688;28;20289;-71
2023/06/19 02:32:35;;;;;;;5.65;5.25;;;23.10;58.50;;;;;;5039115;28;20227;-71
2023/06/19 02:35:06;;;;;;;5.70;5.18;;;23.10;58.40;;;;;;5034669;28;20175;-70
2023/06/19 02:37:35;;;;;;;6.20;5.80;;;23.10;59.10;;;;;;5009773;28;20282;-71
2023/06/19 02:40:04;;;;;;;5.75;5.32;;;23.10;58.40;;;;;;5041853;28;20203;-72
2023/06/19 02:42:32;;;;;;;5.70;5.30;;;23.10;58.50;;;;;;5017803;28;20179;-71
2023/06/19 02:45:02;;;;;;;5.40;5.00;;;23.10;58.50;;;;;;5022779;28;20184;-71
2023/06/19 02:47:32;;;;;;;6.30;5.80;;;23.10;58.50;;;;;;5013058;28;20237;-71
2023/06/19 02:50:00;;;;;;;5.97;5.43;;;23.10;58.50;;;;;;5033602;28;20208;-70
2023/06/19 02:52:27;;;;;;;5.60;5.20;;;23.10;58.50;;;;;;5033590;28;20211;-72
2023/06/19 02:54:53;;;;;;;5.75;5.35;;;23.10;58.50;;;;;;5024313;28;20188;-71
2023/06/19 02:57:18;;;;;;;5.85;5.35;;;23.10;58.50;;;;;;5019805;28;20191;-71
2023/06/19 02:59:45;;;;;;;6.05;5.65;;;23.10;58.50;;;;;;5013730;28;20246;-71
2023/06/19 03:02:11;;;;;;;6.05;5.60;;;23.10;58.50;;;;;;5021793;28;20188;-70
2023/06/19 03:04:37;;;;;;;6.25;5.82;;;23.10;58.50;;;;;;5010552;28;20207;-71
2023/06/19 03:07:04;;;;;;;5.72;5.32;;;23.10;58.50;;;;;;5017021;28;20670;-70
2023/06/19 03:09:30;;;;;;;5.80;5.32;;;23.10;58.50;;;;;;5009159;28;20233;-70
2023/06/19 03:11:55;;;;;;;5.90;5.50;;;23.10;58.50;;;;;;4997961;28;20227;-71
2023/06/19 03:14:21;;;;;;;6.00;5.50;;;23.10;58.50;;;;;;5024691;28;20204;-71
2023/06/19 03:16:47;;;;;;;5.68;5.28;;;23.10;58.50;;;;;;5005281;28;20205;-69
2023/06/19 03:19:13;;;;;;;5.43;5.03;;;23.10;58.50;;;;;;5006704;28;20214;-71
2023/06/19 03:21:39;;;;;;;6.18;5.68;;;23.10;58.50;;;;;;5027155;28;20187;-73
2023/06/19 03:24:05;;;;;;;5.40;5.00;;;23.10;58.50;;;;;;5033117;28;20245;-71
2023/06/19 03:26:32;;;;;;;5.70;5.25;;;23.10;58.50;;;;;;5009488;28;20188;-71
2023/06/19 03:29:01;;;;;;;5.88;5.38;;;23.10;58.50;;;;;;5016680;28;20708;-70
2023/06/19 03:31:32;;;;;;;5.78;5.35;;;23.10;58.50;;;;;;5034172;28;20183;-71
2023/06/19 03:33:59;;;;;;;5.90;5.43;;;23.10;58.50;;;;;;5016684;28;20234;-71
2023/06/19 03:36:25;;;;;;;5.95;5.53;;;23.10;58.50;;;;;;5024811;28;20591;-71
2023/06/19 03:38:54;;;;;;;5.97;5.50;;;23.10;58.60;;;;;;5016391;28;20187;-70
2023/06/19 03:41:23;;;;;;;5.93;5.47;;;23.10;58.70;;;;;;5032684;28;20206;-70
2023/06/19 03:43:49;;;;;;;5.35;4.95;;;23.10;58.70;;;;;;5006658;28;20188;-68
2023/06/19 03:46:16;;;;;;;5.93;5.47;;;23.10;58.70;;;;;;5009400;28;20211;-72
2023/06/19 03:48:41;;;;;;;5.10;4.70;;;23.10;58.70;;;;;;5007777;28;20188;-71
2023/06/19 03:51:07;;;;;;;5.13;4.75;;;23.10;58.80;;;;;;5016276;28;20211;-70
2023/06/19 03:53:33;;;;;;;5.85;5.45;;;23.10;58.80;;;;;;5029508;28;20310;-70
2023/06/19 03:55:58;;;;;;;6.13;5.63;;;23.10;58.80;;;;;;5012711;28;20221;-72
2023/06/19 03:58:25;;;;;;;5.63;5.22;;;23.10;58.80;;;;;;5032685;28;20566;-70
2023/06/19 04:00:51;;;;;;;5.60;5.15;;;23.10;58.80;;;;;;5007928;28;20294;-70
2023/06/19 04:03:17;;;;;;;5.78;5.30;;;23.10;58.80;;;;;;5032498;28;20270;-71
2023/06/19 04:05:45;;;;;;;7.28;5.68;;;23.10;58.80;;;;;;5024091;28;20346;-70
2023/06/19 04:08:11;;;;;;;5.82;5.43;;;23.10;58.80;;;;;;5020257;28;20180;-71
2023/06/19 04:10:37;;;;;;;5.82;5.32;;;23.10;58.90;;;;;;5012826;28;20212;-71
2023/06/19 04:13:04;;;;;;;5.97;5.47;;;23.10;58.90;;;;;;5004401;28;20208;-72
2023/06/19 04:15:32;;;;;;;5.65;5.15;;;23.10;58.90;;;;;;5025430;28;20307;-74
2023/06/19 04:18:00;;;;;;;5.57;5.18;;;23.00;58.90;;;;;;5014342;28;20406;-71
2023/06/19 04:20:26;;;;;;;5.55;5.15;;;23.10;59.00;;;;;;5032463;28;20207;-72
2023/06/19 04:22:52;;;;;;;5.75;5.35;;;23.10;59.00;;;;;;5013796;28;20199;-71
2023/06/19 04:25:18;;;;;;;5.45;5.05;;;23.10;59.00;;;;;;4997864;28;20223;-71
2023/06/19 04:27:47;;;;;;;5.60;5.20;;;23.00;58.90;;;;;;5045831;28;20223;-71
2023/06/19 04:30:13;;;;;;;5.90;5.30;;;23.10;59.00;;;;;;5015884;28;20709;-71
2023/06/19 04:32:40;;;;;;;5.25;4.85;;;23.00;59.00;;;;;;5023487;28;20218;-71
2023/06/19 04:35:08;;;;;;;5.32;4.93;;;23.00;59.00;;;;;;5023702;28;20180;-72
2023/06/19 04:37:34;;;;;;;5.40;5.00;;;23.00;59.00;;;;;;5008499;28;20207;-72
2023/06/19 04:39:59;;;;;;;5.60;5.20;;;23.10;59.10;;;;;;5021228;28;20208;-71
2023/06/19 04:42:26;;;;;;;5.30;4.90;;;23.00;59.00;;;;;;5022550;28;20660;-72
2023/06/19 04:44:52;;;;;;;5.07;4.72;;;23.10;59.10;;;;;;5030819;28;20249;-71
2023/06/19 04:47:22;;;;;;;4.88;4.47;;;23.00;59.10;;;;;;5010191;28;20180;-72
2023/06/19 04:49:48;;;;;;;4.70;4.40;;;23.10;59.20;;;;;;5012486;28;20207;-72
2023/06/19 04:52:14;;;;;;;5.32;4.90;;;23.00;59.20;;;;;;5048273;28;20214;-71
2023/06/19 04:54:40;;;;;;;5.47;4.97;;;23.00;59.10;;;;;;5031361;28;20301;-72
2023/06/19 04:57:06;;;;;;;5.30;4.90;;;23.10;59.20;;;;;;5002781;28;20188;-72
2023/06/19 04:59:33;;;;;;;5.05;4.65;;;23.00;59.10;;;;;;5027724;28;20687;-72
2023/06/19 05:01:59;;;;;;;5.32;4.82;;;23.10;59.20;;;;;;5028958;28;20193;-72
2023/06/19 05:04:25;;;;;;;4.70;4.40;;;23.10;59.20;;;;;;5006007;28;20192;-72
2023/06/19 05:06:51;;;;;;;5.45;5.05;;;23.10;59.20;;;;;;5037632;28;20283;-71
2023/06/19 05:09:17;;;;;;;5.35;4.95;;;23.10;59.20;;;;;;5002000;28;20723;-71
2023/06/19 05:11:44;;;;;;;4.95;4.55;;;23.10;59.30;;;;;;5027893;28;20682;-75
2023/06/19 05:14:10;;;;;;;4.25;3.95;;;23.10;59.30;;;;;;5014965;28;20210;-73
2023/06/19 05:16:36;;;;;;;5.18;4.72;;;23.10;59.30;;;;;;5017026;28;20184;-72
2023/06/19 05:19:01;;;;;;;4.55;4.13;;;23.10;59.30;;;;;;5010323;28;20230;-72
2023/06/19 05:21:27;;;;;;;4.30;4.00;;;23.10;59.40;;;;;;5025281;28;20232;-70
2023/06/19 05:23:53;;;;;;;5.10;4.70;;;23.10;59.40;;;;;;5030149;28;20199;-71
2023/06/19 05:26:20;;;;;;;4.72;4.32;;;23.10;59.50;;;;;;5008254;28;20202;-71
2023/06/19 05:28:47;;;;;;;4.50;4.20;;;23.10;59.40;;;;;;5022513;28;20574;-71
2023/06/19 05:31:12;;;;;;;4.90;4.50;;;23.10;59.50;;;;;;5022953;28;20249;-71
2023/06/19 05:33:38;;;;;;;4.53;4.22;;;23.10;59.60;;;;;;5022920;28;20256;-71
2023/06/19 05:36:04;;;;;;;4.60;4.30;;;23.10;59.60;;;;;;5035945;28;20191;-72
2023/06/19 05:38:30;;;;;;;4.93;4.43;;;23.10;59.60;;;;;;5005698;28;20199;-71
2023/06/19 05:40:59;;;;;;;4.80;4.40;;;23.10;59.70;;;;;;5028757;28;20289;-72
2023/06/19 05:43:26;;;;;;;4.28;3.97;;;23.10;59.60;;;;;;5003055;28;20192;-71
2023/06/19 05:45:54;;;;;;;5.00;4.60;;;23.10;59.60;;;;;;5009603;28;20184;-71
2023/06/19 05:48:20;;;;;;;4.43;4.13;;;23.10;59.60;;;;;;5032238;28;20205;-71
2023/06/19 05:50:45;;;;;;;4.30;3.90;;;23.10;59.60;;;;;;5006281;28;20690;-76
2023/06/19 05:53:11;;;;;;;4.65;4.25;;;23.10;59.70;;;;;;5006007;28;20219;-71
2023/06/19 05:55:37;;;;;;;4.40;4.07;;;23.10;60.40;;;;;;5014371;28;20187;-73
2023/06/19 05:58:03;;;;;;;5.07;4.68;;;23.10;59.70;;;;;;5020661;28;20211;-71
2023/06/19 06:00:31;;;;;;;4.70;4.35;;;23.10;59.70;;;;;;5008880;28;20207;-77
2023/06/19 06:03:00;;;;;;;4.45;4.07;;;23.10;59.70;;;;;;5012410;28;20224;-72
2023/06/19 06:05:27;;;;;;;4.05;3.67;;;23.10;59.70;;;;;;5022249;28;20207;-71
2023/06/19 06:07:55;;;;;;;4.25;3.85;;;23.10;59.60;;;;;;5026524;28;20286;-71
2023/06/19 06:10:22;;;;;;;4.07;3.78;;;23.10;59.70;;;;;;5022528;28;20265;-71
2023/06/19 06:12:49;;;;;;;4.38;3.97;;;23.10;59.70;;;;;;5039552;28;20220;-71
2023/06/19 06:15:15;;;;;;;4.50;4.10;;;23.10;59.70;;;;;;5026299;28;20179;-71
2023/06/19 06:17:41;;;;;;;4.53;3.97;;;23.10;59.60;;;;;;5010948;28;20219;-72
2023/06/19 06:20:11;;;;;;;4.10;3.80;;;23.10;59.60;;;;;;5031383;28;20239;-71
2023/06/19 06:22:37;;;;;;;3.63;3.33;;;23.10;59.60;;;;;;5022826;28;20246;-71
2023/06/19 06:25:04;;;;;;;4.03;3.72;;;23.10;59.70;;;;;;5038410;28;20184;-71
2023/06/19 06:27:30;;;;;;;4.38;3.70;;;23.10;59.70;;;;;;5028196;28;20202;-71
2023/06/19 06:29:56;;;;;;;4.53;3.83;;;23.10;59.70;;;;;;5044407;28;20215;-72
2023/06/19 06:32:21;;;;;;;3.67;3.38;;;23.20;59.80;;;;;;5014855;28;20206;-71
2023/06/19 06:34:47;;;;;;;4.03;3.72;;;23.10;59.80;;;;;;5012642;28;20302;-71
2023/06/19 06:37:13;;;;;;;4.00;3.70;;;23.10;59.90;;;;;;5017072;28;20241;-72
2023/06/19 06:39:39;;;;;;;4.13;3.72;;;23.20;60.00;;;;;;5025812;28;20215;-71
2023/06/19 06:42:05;;;;;;;3.80;3.50;;;23.20;59.90;;;;;;5034994;28;20183;-72
2023/06/19 06:44:31;;;;;;;3.72;3.20;;;23.10;59.90;;;;;;5030781;28;20191;-71
2023/06/19 06:46:57;;;;;;;4.07;3.78;;;23.20;60.00;;;;;;5031452;28;20261;-71
2023/06/19 06:49:22;;;;;;;4.05;3.75;;;23.20;59.90;;;;;;5017271;28;20211;-71
2023/06/19 06:51:48;;;;;;;3.45;3.25;;;23.20;60.00;;;;;;5017356;28;20191;-71
2023/06/19 06:54:14;;;;;;;4.03;3.72;;;23.20;59.90;;;;;;5013975;28;20216;-71
2023/06/19 06:56:40;;;;;;;3.88;3.58;;;23.20;59.90;;;;;;5022035;28;20198;-72
2023/06/19 06:59:05;;;;;;;3.80;3.50;;;23.20;60.10;;;;;;5015082;28;20204;-72
2023/06/19 07:01:31;;;;;;;4.28;3.80;;;23.20;60.00;;;;;;5019671;28;20191;-73
2023/06/19 07:03:57;;;;;;;3.70;3.50;;;23.20;60.00;;;;;;5025416;28;20254;-71
2023/06/19 07:06:23;;;;;;;3.92;3.63;;;23.20;61.00;;;;;;5009099;28;20233;-72
2023/06/19 07:08:48;;;;;;;3.60;3.30;;;23.20;60.20;;;;;;5017630;28;20198;-71
2023/06/19 07:11:14;;;;;;;4.07;3.78;;;23.20;60.20;;;;;;5032984;28;20214;-71
2023/06/19 07:13:41;;;;;;;3.38;3.17;;;23.20;60.20;;;;;;5013509;28;20240;-72
2023/06/19 07:16:07;;;;;;;4.05;3.67;;;23.20;60.20;;;;;;4997207;28;20223;-72
2023/06/19 07:18:35;;;;;;;3.88;3.58;;;23.20;60.20;;;;;;5014670;28;20203;-71
2023/06/19 07:21:12;;;;;;;3.78;3.47;;;23.20;60.20;;;;;;5012333;28;20314;-72
2023/06/19 07:23:39;;;;;;;4.20;3.90;;;23.20;60.20;;;;;;5013784;28;20203;-71
2023/06/19 07:26:05;;;;;;;3.70;3.40;;;23.20;60.20;;;;;;5007140;28;20210;-72
2023/06/19 07:28:31;;;;;;;4.45;3.75;;;23.30;60.30;;;;;;5016973;28;20215;-71
2023/06/19 07:30:57;;;;;;;3.67;3.38;;;23.20;60.20;;;;;;5030310;28;20573;-72
2023/06/19 07:33:22;;;;;;;3.63;3.33;;;23.20;60.20;;;;;;5024795;28;20226;-71
2023/06/19 07:35:48;;;;;;;4.00;3.70;;;23.20;60.20;;;;;;5024975;28;20274;-71
2023/06/19 07:38:14;;;;;;;3.60;3.35;;;23.20;60.20;;;;;;5000229;28;20195;-71
2023/06/19 07:40:40;;;;;;;3.70;3.40;;;23.20;60.20;;;;;;5024718;28;20299;-71
2023/06/19 07:43:05;;;;;;;3.92;3.63;;;23.20;60.20;;;;;;5022556;28;20279;-72
2023/06/19 07:45:31;;;;;;;3.53;3.30;;;23.20;60.30;;;;;;5026866;28;20195;-72
2023/06/19 07:47:57;;;;;;;3.72;3.42;;;23.20;60.50;;;;;;5049268;28;20191;-73
2023/06/19 07:50:23;;;;;;;3.58;3.15;;;23.20;60.30;;;;;;5012254;28;20723;-72
2023/06/19 07:52:49;;;;;;;3.92;3.63;;;23.20;60.30;;;;;;5020529;28;20206;-72
2023/06/19 07:55:14;;;;;;;3.60;3.30;;;23.20;60.50;;;;;;5005545;28;20225;-72
2023/06/19 07:57:40;;;;;;;3.78;3.47;;;23.20;60.50;;;;;;5024933;28;20345;-71
2023/06/19 08:00:10;;;;;;;3.92;3.65;;;23.20;60.50;;;;;;5030352;28;20199;-72
2023/06/19 08:02:37;;;;;;;3.80;3.50;;;23.30;60.60;;;;;;5027692;28;20271;-71
2023/06/19 08:05:03;;;;;;;3.83;3.53;;;23.20;60.50;;;;;;5030341;28;20278;-71
2023/06/19 08:07:29;;;;;;;3.70;3.50;;;23.30;60.60;;;;;;5011322;28;20346;-71
2023/06/19 08:09:55;;;;;;;4.53;3.47;;;23.30;60.50;;;;;;5029040;28;20222;-71
2023/06/19 08:12:20;;;;;;;3.80;3.50;;;23.30;61.30;;;;;;5048628;28;20215;-71
2023/06/19 08:14:46;;;;;;;3.97;3.67;;;23.30;60.50;;;;;;5025365;28;20212;-72
2023/06/19 08:17:12;;;;;;;3.72;3.50;;;23.30;60.60;;;;;;5029072;28;20193;-71
2023/06/19 08:19:39;;;;;;;3.70;3.40;;;23.30;60.60;;;;;;5018660;28;20230;-71
2023/06/19 08:22:05;;;;;;;3.60;3.30;;;23.30;60.60;;;;;;5014390;28;20192;-72
2023/06/19 08:24:31;;;;;;;3.90;3.30;;;23.30;60.50;;;;;;5000865;28;20198;-72
2023/06/19 08:26:57;;;;;;;4.03;3.72;;;23.30;60.50;;;;;;5031864;28;20194;-71
2023/06/19 08:29:23;;;;;;;3.60;3.25;;;23.30;60.30;;;;;;5024165;28;20206;-73
2023/06/19 08:31:49;;;;;;;3.75;3.45;;;23.40;60.40;;;;;;5039852;28;20199;-72
2023/06/19 08:34:14;;;;;;;3.70;3.40;;;23.30;60.30;;;;;;5040181;28;20309;-71
2023/06/19 08:36:40;;;;;;;3.72;3.47;;;23.30;60.30;;;;;;5048528;28;20237;-71
2023/06/19 08:39:08;;;;;;;3.70;3.40;;;23.30;60.40;;;;;;5015184;28;20175;-71
2023/06/19 08:41:37;;;;;;;3.70;3.50;;;23.30;60.30;;;;;;5032719;28;20195;-72
2023/06/19 08:44:04;;;;;;;3.90;3.60;;;23.30;60.30;;;;;;5031779;28;20211;-71
2023/06/19 08:46:30;;;;;;;3.35;3.15;;;23.40;60.40;;;;;;5015431;28;20183;-72
2023/06/19 08:48:56;;;;;;;3.60;3.30;;;23.30;60.20;;;;;;5031400;28;20218;-74
2023/06/19 08:51:22;;;;;;;3.50;3.20;;;23.40;60.10;;;;;;5016466;28;20297;-73
2023/06/19 08:54:09;;;;;;;3.72;3.42;;;23.40;60.00;;;;;;5008410;28;20296;-71
2023/06/19 08:56:37;;;;;;;4.00;3.70;;;23.40;59.90;;;;;;5014620;28;20179;-71
2023/06/19 08:59:19;;;;;;;3.83;3.53;;;23.40;60.00;;;;;;5012429;28;20187;-71
2023/06/19 09:01:53;;;;;;;3.10;2.90;;;23.50;60.00;;;;;;5014612;28;20270;-71
2023/06/19 09:04:26;;;;;;;3.83;3.53;;;23.50;60.00;;;;;;5031320;28;20187;-72
2023/06/19 09:06:55;;;;;;;3.47;3.28;;;23.50;59.90;;;;;;5022923;28;20214;-72
2023/06/19 09:09:23;;;;;;;3.10;2.90;;;23.50;59.90;;;;;;5019772;28;20291;-71
2023/06/19 09:12:05;;;;;;;3.28;3.08;;;23.50;59.90;;;;;;5000665;28;20187;-71
2023/06/19 09:14:37;;;;;;;3.28;3.08;;;23.50;59.80;;;;;;5005817;28;20219;-72
2023/06/19 09:17:07;;;;;;;3.58;3.28;;;23.50;59.90;;;;;;4997877;28;20191;-71
2023/06/19 09:19:37;;;;;;;4.90;3.40;;;23.50;59.90;;;;;;5011554;28;20218;-72
2023/06/19 09:22:06;;;;;;;3.65;3.35;;;23.50;59.80;;;;;;5030264;28;20191;-72
2023/06/19 09:24:40;;;;;;;3.22;3.03;;;23.50;59.90;;;;;;5024396;28;20198;-71
2023/06/19 09:27:33;;;;;;;3.10;2.90;;;23.50;60.00;;;;;;5014531;28;20226;-71
2023/06/19 09:30:00;;;;;;;2.88;2.67;;;23.50;60.00;;;;;;5042406;28;20257;-71
2023/06/19 09:32:28;;;;;;;3.67;3.38;;;23.50;60.10;;;;;;5024176;28;20710;-71
2023/06/19 09:34:58;;;;;;;3.20;3.00;;;23.50;60.10;;;;;;5006611;28;20215;-73
2023/06/19 09:37:26;;;;;;;3.25;3.05;;;23.50;60.10;;;;;;5030809;28;20197;-71
2023/06/19 09:40:13;;;;;;;3.40;3.10;;;23.50;60.10;;;;;;5026724;28;20558;-71
2023/06/19 09:42:43;;;;;;;3.55;3.25;;;23.50;60.30;;;;;;5008677;28;20189;-71
2023/06/19 09:45:32;;;;;;;4.72;3.42;;;23.50;60.30;;;;;;5035296;28;20258;-71
2023/06/19 09:47:57;;;;;;;3.33;3.03;;;23.50;60.40;;;;;;5010505;28;20191;-73
2023/06/19 09:50:37;;;;;;;2.95;2.75;;;23.50;60.20;;;;;;5036458;28;20238;-71
2023/06/19 09:53:04;;;;;;;3.22;3.03;;;23.50;60.50;;;;;;5043066;28;20694;-71
2023/06/19 09:55:32;;;;;;;3.22;3.03;;;23.50;60.20;;;;;;5018749;28;20190;-72
2023/06/19 09:58:00;;;;;;;3.42;3.13;;;23.50;60.20;;;;;;5051656;28;20215;-70
2023/06/19 10:00:31;;;;;;;4.50;3.28;;;23.50;60.20;;;;;;5032428;28;20214;-72
2023/06/19 10:02:58;;;;;;;3.30;3.00;;;23.50;60.20;;;;;;5031156;28;20194;-71
2023/06/19 10:05:31;;;;;;;3.25;3.00;;;23.50;60.10;;;;;;5018234;28;20206;-70
2023/06/19 10:08:01;;;;;;;3.50;3.00;;;23.50;60.30;;;;;;5043021;28;20199;-71
2023/06/19 10:10:28;;;;;;;3.35;2.97;;;23.50;60.50;;;;;;5027723;28;20243;-72
2023/06/19 10:12:58;;;;;;;3.40;3.10;;;23.50;60.50;;;;;;5017801;28;20282;-71
2023/06/19 10:15:29;;;;;;;3.60;3.30;;;23.50;60.30;;;;;;5034608;28;20205;-71
2023/06/19 10:18:03;;;;;;;3.40;3.10;;;23.50;60.50;;;;;;5014985;28;20192;-73
2023/06/19 10:20:34;;;;;;;3.05;2.80;;;23.50;60.50;;;;;;5015947;28;20226;-72
2023/06/19 10:23:04;;;;;;;3.78;3.47;;;23.50;60.70;;;;;;5035826;28;20690;-70
2023/06/19 10:25:35;;;;;;;3.58;3.25;;;23.50;60.50;;;;;;5036841;28;20199;-71
2023/06/19 10:28:05;;;;;;;3.75;3.45;;;23.50;60.50;;;;;;5034773;28;20196;-73
2023/06/19 10:30:31;;;;;;;3.40;3.10;;;23.50;60.50;;;;;;5020107;28;20298;-73
2023/06/19 10:32:57;;;;;;;3.45;3.15;;;23.50;60.50;;;;;;5029054;28;20281;-72
2023/06/19 10:35:24;;;;;;;3.05;2.75;;;23.50;60.50;;;;;;5017084;28;20187;-72
2023/06/19 10:37:50;;;;;;;3.50;3.20;;;23.50;60.50;;;;;;5031103;28;20191;-74
2023/06/19 10:40:17;;;;;;;4.63;3.20;;;23.50;60.50;;;;;;5006629;28;20208;-72
2023/06/19 10:42:44;;;;;;;3.33;3.03;;;23.50;60.50;;;;;;5034871;28;20255;-71
2023/06/19 10:45:13;;;;;;;4.15;3.75;;;23.50;60.70;;;;;;5032775;28;20647;-73
2023/06/19 10:47:40;;;;;;;3.60;3.00;;;23.50;60.50;;;;;;5024632;28;20187;-72
2023/06/19 10:50:15;;;;;;;3.53;2.88;;;23.50;60.50;;;;;;5032280;28;20215;-72
2023/06/19 10:52:43;;;;;;;3.38;3.08;;;23.50;60.50;;;;;;5030299;28;20287;-72
2023/06/19 10:55:10;;;;;;;3.38;3.05;;;23.50;60.50;;;;;;5027784;28;20230;-72
2023/06/19 10:57:36;;;;;;;3.28;3.03;;;23.50;60.60;;;;;;5033978;28;20210;-72
2023/06/19 11:00:11;;;;;;;3.63;3.08;;;23.60;60.80;;;;;;5032375;28;20235;-72
2023/06/19 11:02:39;;;;;;;6.80;3.17;;;23.60;60.90;;;;;;5002428;28;20186;-72
2023/06/19 11:05:06;;;;;;;5.07;2.90;;;23.60;61.40;;;;;;5034616;28;20203;-72
2023/06/19 11:07:32;;;;;;;3.17;2.75;;;23.60;61.00;;;;;;5033583;28;20249;-72
2023/06/19 11:09:58;;;;;;;4.97;3.13;;;23.60;61.10;;;;;;5033857;28;20319;-70
2023/06/19 11:12:24;;;;;;;3.40;3.08;;;23.60;61.20;;;;;;5016739;28;20286;-71
2023/06/19 11:14:50;;;;;;;3.83;3.05;;;23.60;62.10;;;;;;5030211;28;20258;-71
2023/06/19 11:17:23;;;;;;;5.80;3.00;;;23.60;61.20;;;;;;5032608;28;20187;-71
2023/06/19 11:19:50;;;;;;;3.25;2.95;;;23.60;61.30;;;;;;5033415;28;20290;-71
2023/06/19 11:22:16;;;;;;;4.15;3.13;;;23.60;61.30;;;;;;5029769;28;20205;-72
2023/06/19 11:24:46;;;;;;;3.53;3.10;;;23.60;62.10;;;;;;5018531;28;20199;-71
2023/06/19 11:27:28;;;;;;;4.40;3.10;;;23.60;61.30;;;;;;5026342;28;20232;-71
2023/06/19 11:29:59;;;;;;;4.70;2.95;;;23.60;61.40;;;;;;5009908;28;20282;-71
2023/06/19 11:32:32;;;;;;;5.45;3.15;;;23.60;61.60;;;;;;5013272;28;20223;-72
2023/06/19 11:35:07;;;;;;;2.72;2.42;;;23.60;61.30;;;;;;5004930;28;20226;-72
2023/06/19 11:37:33;;;;;;;4.03;3.03;;;23.60;61.30;;;;;;5025222;28;20187;-71
2023/06/19 11:39:59;;;;;;;3.65;3.15;;;23.60;61.20;;;;;;5046593;28;20235;-71
2023/06/19 11:42:26;;;;;;;3.28;2.75;;;23.60;61.10;;;;;;5025801;28;20187;-73
2023/06/19 11:45:06;;;;;;;3.83;2.72;;;23.60;61.10;;;;;;5022067;28;20196;-72
2023/06/19 11:47:33;;;;;;;5.45;3.22;;;23.60;61.10;;;;;;5026445;28;20183;-71
2023/06/19 11:50:00;;;;;;;3.33;3.00;;;23.60;61.10;;;;;;5013182;28;20243;-71
2023/06/19 11:52:26;;;;;;;3.00;2.75;;;23.60;61.00;;;;;;5005688;28;20219;-71
2023/06/19 11:54:52;;;;;;;7.10;3.53;;;23.60;61.10;;;;;;5015741;28;20225;-71
2023/06/19 11:57:18;;;;;;;4.00;3.00;;;23.60;61.10;;;;;;5043370;28;20184;-71
2023/06/19 11:59:43;;;;;;;2.90;2.60;;;23.60;61.50;;;;;;5011378;28;20200;-71
2023/06/19 12:02:09;;;;;;;3.10;2.80;;;23.60;61.20;;;;;;5011672;28;20188;-71
2023/06/19 12:04:35;;;;;;;2.80;2.60;;;23.60;61.10;;;;;;5029096;28;20195;-71
2023/06/19 12:07:03;;;;;;;3.88;3.05;;;23.70;61.20;;;;;;5028453;28;20265;-72
2023/06/19 12:09:30;;;;;;;2.88;2.58;;;23.60;61.10;;;;;;5048748;28;20222;-71
2023/06/19 12:11:56;;;;;;;3.25;3.05;;;23.70;61.10;;;;;;5032124;28;20217;-72
2023/06/19 12:14:21;;;;;;;3.00;2.80;;;23.70;61.30;;;;;;5033553;28;20211;-71
2023/06/19 12:16:48;;;;;;;3.22;2.72;;;23.70;61.30;;;;;;5032486;28;20195;-72
2023/06/19 12:19:14;;;;;;;3.28;2.80;;;23.60;61.20;;;;;;5032416;28;20678;-72
2023/06/19 12:21:39;;;;;;;3.15;2.78;;;23.60;61.10;;;;;;5013981;28;20183;-73
2023/06/19 12:24:06;;;;;;;2.88;2.45;;;23.70;61.10;;;;;;5031730;28;20651;-71
2023/06/19 12:26:36;;;;;;;3.10;2.63;;;23.70;61.20;;;;;;5015698;28;20175;-71
2023/06/19 12:29:06;;;;;;;3.22;2.92;;;23.70;61.20;;;;;;5031825;28;20195;-72
2023/06/19 12:31:33;;;;;;;3.08;2.80;;;23.70;61.10;;;;;;5023300;28;20209;-71
2023/06/19 12:34:01;;;;;;;2.85;2.65;;;23.70;61.10;;;;;;5008319;28;20208;-71
2023/06/19 12:36:27;;;;;;;3.53;2.50;;;23.70;61.20;;;;;;5013545;28;20195;-71
2023/06/19 12:38:54;;;;;;;2.80;2.60;;;23.70;61.10;;;;;;5033116;28;20224;-71
2023/06/19 12:41:22;;;;;;;3.33;3.10;;;23.70;61.20;;;;;;5029691;28;20204;-71
2023/06/19 12:43:49;;;;;;;2.53;2.33;;;23.70;61.20;;;;;;5010361;28;20287;-73
2023/06/19 12:46:15;;;;;;;3.13;2.60;;;23.70;61.10;;;;;;5022045;28;20201;-71
2023/06/19 12:48:44;;;;;;;2.90;2.70;;;23.70;61.20;;;;;;5003264;28;20204;-72
2023/06/19 12:51:10;;;;;;;2.72;2.53;;;23.70;61.10;;;;;;5008182;28;20219;-71